sensor_id;sensor_type;location;lat;lon;timestamp;pressure;altitude;pressure_sealevel;temperature;humidity
32761;BME280;19126;47.472;7.850;2022-11-15T00:00:46;96468.03;;;6.99;36.48
32761;BME280;19126;47.472;7.850;2022-11-15T00:03:14;96464.16;;;7.03;37.11
32761;BME280;19126;47.472;7.850;2022-11-15T00:05:43;96469.06;;;7.06;39.29
32761;BME280;19126;47.472;7.850;2022-11-15T00:08:11;96465.63;;;7.06;39.90
32761;BME280;19126;47.472;7.850;2022-11-15T00:10:38;96462.84;;;7.07;40.26
32761;BME280;19126;47.472;7.850;2022-11-15T00:13:06;96453.25;;;7.08;40.10
32761;BME280;19126;47.472;7.850;2022-11-15T00:15:35;96446.22;;;7.08;40.88
32761;BME280;19126;47.472;7.850;2022-11-15T00:18:03;96448.81;;;7.08;39.95
32761;BME280;19126;47.472;7.850;2022-11-15T00:20:31;96449.34;;;7.12;41.00
32761;BME280;19126;47.472;7.850;2022-11-15T00:23:03;96440.53;;;7.13;41.14
32761;BME280;19126;47.472;7.850;2022-11-15T00:25:30;96436.94;;;7.14;41.20
32761;BME280;19126;47.472;7.850;2022-11-15T00:27:59;96432.53;;;7.14;41.46
32761;BME280;19126;47.472;7.850;2022-11-15T00:30:27;96440.03;;;7.17;42.03
32761;BME280;19126;47.472;7.850;2022-11-15T00:32:55;96430.78;;;7.23;42.20
32761;BME280;19126;47.472;7.850;2022-11-15T00:35:22;96415.25;;;7.22;41.85
32761;BME280;19126;47.472;7.850;2022-11-15T00:37:49;96413.16;;;7.25;43.48
32761;BME280;19126;47.472;7.850;2022-11-15T00:40:19;96412.00;;;7.28;44.25
32761;BME280;19126;47.472;7.850;2022-11-15T00:42:46;96415.63;;;7.35;47.48
32761;BME280;19126;47.472;7.850;2022-11-15T00:45:13;96410.06;;;7.38;50.19
32761;BME280;19126;47.472;7.850;2022-11-15T00:47:43;96414.00;;;7.42;54.11
32761;BME280;19126;47.472;7.850;2022-11-15T00:50:10;96410.91;;;7.47;55.95
32761;BME280;19126;47.472;7.850;2022-11-15T00:52:38;96412.56;;;7.48;59.15
32761;BME280;19126;47.472;7.850;2022-11-15T00:55:05;96408.00;;;7.50;60.13
32761;BME280;19126;47.472;7.850;2022-11-15T00:57:34;96402.91;;;7.48;60.90
32761;BME280;19126;47.472;7.850;2022-11-15T01:00:01;96398.50;;;7.49;62.06
32761;BME280;19126;47.472;7.850;2022-11-15T01:02:29;96407.16;;;7.50;62.80
32761;BME280;19126;47.472;7.850;2022-11-15T01:04:56;96410.44;;;7.52;62.96
32761;BME280;19126;47.472;7.850;2022-11-15T01:07:23;96409.78;;;7.58;64.33
32761;BME280;19126;47.472;7.850;2022-11-15T01:09:50;96403.25;;;7.62;67.65
32761;BME280;19126;47.472;7.850;2022-11-15T01:12:17;96397.22;;;7.61;68.09
32761;BME280;19126;47.472;7.850;2022-11-15T01:14:46;96388.88;;;7.66;69.43
32761;BME280;19126;47.472;7.850;2022-11-15T01:17:13;96388.22;;;7.64;70.64
32761;BME280;19126;47.472;7.850;2022-11-15T01:19:41;96385.81;;;7.71;73.44
32761;BME280;19126;47.472;7.850;2022-11-15T01:22:08;96380.56;;;7.71;73.65
32761;BME280;19126;47.472;7.850;2022-11-15T01:24:35;96391.03;;;7.71;74.46
32761;BME280;19126;47.472;7.850;2022-11-15T01:27:02;96386.59;;;7.71;76.09
32761;BME280;19126;47.472;7.850;2022-11-15T01:29:30;96388.75;;;7.76;75.96
32761;BME280;19126;47.472;7.850;2022-11-15T01:31:58;96385.63;;;7.72;78.12
32761;BME280;19126;47.472;7.850;2022-11-15T01:34:25;96382.88;;;7.74;78.60
32761;BME280;19126;47.472;7.850;2022-11-15T01:36:53;96381.06;;;7.74;82.86
32761;BME280;19126;47.472;7.850;2022-11-15T01:39:20;96386.63;;;7.80;84.14
32761;BME280;19126;47.472;7.850;2022-11-15T01:41:47;96381.56;;;7.86;86.94
32761;BME280;19126;47.472;7.850;2022-11-15T01:44:44;96376.16;;;7.88;91.58
32761;BME280;19126;47.472;7.850;2022-11-15T01:47:18;96364.56;;;7.90;93.36
32761;BME280;19126;47.472;7.850;2022-11-15T01:49:54;96367.97;;;7.91;94.52
32761;BME280;19126;47.472;7.850;2022-11-15T01:52:25;96357.38;;;7.92;95.57
32761;BME280;19126;47.472;7.850;2022-11-15T01:55:00;96352.78;;;7.95;96.76
32761;BME280;19126;47.472;7.850;2022-11-15T01:57:29;96353.94;;;8.00;100.00
32761;BME280;19126;47.472;7.850;2022-11-15T01:59:57;96352.13;;;8.09;100.00
32761;BME280;19126;47.472;7.850;2022-11-15T02:02:26;96360.28;;;8.23;100.00
32761;BME280;19126;47.472;7.850;2022-11-15T02:04:54;96360.47;;;8.29;100.00
32761;BME280;19126;47.472;7.850;2022-11-15T02:07:22;96360.13;;;8.32;100.00
32761;BME280;19126;47.472;7.850;2022-11-15T02:09:50;96359.28;;;8.32;100.00
32761;BME280;19126;47.472;7.850;2022-11-15T02:12:20;96357.84;;;8.29;100.00
32761;BME280;19126;47.472;7.850;2022-11-15T02:14:52;96350.31;;;8.26;100.00
32761;BME280;19126;47.472;7.850;2022-11-15T02:17:50;96346.06;;;8.25;100.00
32761;BME280;19126;47.472;7.850;2022-11-15T02:20:41;96350.16;;;8.19;100.00
32761;BME280;19126;47.472;7.850;2022-11-15T02:24:05;96341.19;;;8.14;100.00
32761;BME280;19126;47.472;7.850;2022-11-15T02:33:03;96330.22;;;8.10;99.65
32761;BME280;19126;47.472;7.850;2022-11-15T02:35:41;96326.63;;;8.11;98.71
32761;BME280;19126;47.472;7.850;2022-11-15T02:38:18;96325.81;;;8.11;98.47
32761;BME280;19126;47.472;7.850;2022-11-15T02:40:56;96332.19;;;8.08;95.79
32761;BME280;19126;47.472;7.850;2022-11-15T02:43:29;96327.78;;;8.09;94.58
32761;BME280;19126;47.472;7.850;2022-11-15T02:46:21;96314.69;;;8.09;93.63
32761;BME280;19126;47.472;7.850;2022-11-15T02:49:14;96323.34;;;8.09;93.13
32761;BME280;19126;47.472;7.850;2022-11-15T02:51:45;96320.25;;;8.05;91.82
32761;BME280;19126;47.472;7.850;2022-11-15T02:54:18;96314.38;;;8.03;88.77
32761;BME280;19126;47.472;7.850;2022-11-15T02:56:47;96312.56;;;8.04;87.52
32761;BME280;19126;47.472;7.850;2022-11-15T03:02:42;96310.78;;;7.96;84.33
32761;BME280;19126;47.472;7.850;2022-11-15T03:05:20;96314.22;;;7.97;80.63
32761;BME280;19126;47.472;7.850;2022-11-15T03:07:55;96318.94;;;7.93;79.53
32761;BME280;19126;47.472;7.850;2022-11-15T03:10:29;96306.19;;;7.90;77.74
32761;BME280;19126;47.472;7.850;2022-11-15T03:13:07;96301.16;;;7.88;74.96
32761;BME280;19126;47.472;7.850;2022-11-15T03:15:40;96306.53;;;7.87;73.15
32761;BME280;19126;47.472;7.850;2022-11-15T03:18:16;96310.31;;;7.84;70.17
32761;BME280;19126;47.472;7.850;2022-11-15T03:20:48;96314.56;;;7.85;68.23
32761;BME280;19126;47.472;7.850;2022-11-15T03:23:18;96303.44;;;7.83;65.56
32761;BME280;19126;47.472;7.850;2022-11-15T03:25:49;96312.41;;;7.81;62.45
32761;BME280;19126;47.472;7.850;2022-11-15T03:28:22;96311.75;;;7.78;60.01
32761;BME280;19126;47.472;7.850;2022-11-15T03:30:50;96303.91;;;7.78;58.33
32761;BME280;19126;47.472;7.850;2022-11-15T03:33:20;96303.25;;;7.76;54.41
32761;BME280;19126;47.472;7.850;2022-11-15T03:35:50;96311.28;;;7.75;52.60
32761;BME280;19126;47.472;7.850;2022-11-15T03:38:23;96301.16;;;7.72;51.22
32761;BME280;19126;47.472;7.850;2022-11-15T03:40:53;96296.06;;;7.70;47.96
32761;BME280;19126;47.472;7.850;2022-11-15T03:43:33;96301.63;;;7.67;45.55
32761;BME280;19126;47.472;7.850;2022-11-15T03:46:10;96294.94;;;7.65;42.84
32761;BME280;19126;47.472;7.850;2022-11-15T03:48:44;96301.16;;;7.63;40.72
32761;BME280;19126;47.472;7.850;2022-11-15T03:51:17;96287.91;;;7.65;38.86
32761;BME280;19126;47.472;7.850;2022-11-15T03:53:44;96286.94;;;7.66;37.85
32761;BME280;19126;47.472;7.850;2022-11-15T03:56:12;96282.03;;;7.63;34.93
32761;BME280;19126;47.472;7.850;2022-11-15T03:58:39;96279.25;;;7.65;32.06
32761;BME280;19126;47.472;7.850;2022-11-15T04:01:24;96283.50;;;7.66;32.35
32761;BME280;19126;47.472;7.850;2022-11-15T04:03:55;96279.09;;;7.66;30.51
32761;BME280;19126;47.472;7.850;2022-11-15T04:06:26;96287.44;;;7.70;28.79
32761;BME280;19126;47.472;7.850;2022-11-15T04:09:07;96281.38;;;7.69;27.89
32761;BME280;19126;47.472;7.850;2022-11-15T04:14:31;96270.25;;;7.59;25.70
32761;BME280;19126;47.472;7.850;2022-11-15T04:17:19;96266.19;;;7.56;25.51
32761;BME280;19126;47.472;7.850;2022-11-15T04:20:01;96273.38;;;7.62;24.52
32761;BME280;19126;47.472;7.850;2022-11-15T04:25:57;96248.06;;;7.55;22.22
32761;BME280;19126;47.472;7.850;2022-11-15T04:28:29;96242.81;;;7.55;20.39
32761;BME280;19126;47.472;7.850;2022-11-15T04:31:19;96266.50;;;7.70;18.81
32761;BME280;19126;47.472;7.850;2022-11-15T04:33:49;96262.59;;;7.66;19.40
32761;BME280;19126;47.472;7.850;2022-11-15T04:36:19;96263.72;;;7.63;20.01
32761;BME280;19126;47.472;7.850;2022-11-15T04:39:08;96237.13;;;7.59;21.70
32761;BME280;19126;47.472;7.850;2022-11-15T04:41:45;96251.31;;;7.65;21.67
32761;BME280;19126;47.472;7.850;2022-11-15T04:44:28;96243.47;;;7.57;21.51
32761;BME280;19126;47.472;7.850;2022-11-15T04:47:03;96234.00;;;7.47;21.54
32761;BME280;19126;47.472;7.850;2022-11-15T04:49:31;96238.91;;;7.51;21.54
32761;BME280;19126;47.472;7.850;2022-11-15T04:52:09;96246.09;;;7.57;21.57
32761;BME280;19126;47.472;7.850;2022-11-15T04:54:56;96240.38;;;7.53;20.72
32761;BME280;19126;47.472;7.850;2022-11-15T04:57:33;96250.66;;;7.55;21.09
32761;BME280;19126;47.472;7.850;2022-11-15T05:00:02;96242.66;;;7.56;21.60
32761;BME280;19126;47.472;7.850;2022-11-15T05:02:30;96239.56;;;7.53;20.71
32761;BME280;19126;47.472;7.850;2022-11-15T05:05:23;96245.44;;;7.55;21.24
32761;BME280;19126;47.472;7.850;2022-11-15T05:07:59;96241.84;;;7.56;21.33
32761;BME280;19126;47.472;7.850;2022-11-15T05:10:50;96241.50;;;7.67;21.44
32761;BME280;19126;47.472;7.850;2022-11-15T05:13:22;96233.84;;;7.57;22.40
32761;BME280;19126;47.472;7.850;2022-11-15T05:15:54;96227.00;;;7.56;22.32
32761;BME280;19126;47.472;7.850;2022-11-15T05:18:27;96230.06;;;7.60;22.67
32761;BME280;19126;47.472;7.850;2022-11-15T05:20:54;96232.69;;;7.60;22.50
32761;BME280;19126;47.472;7.850;2022-11-15T05:23:21;96221.44;;;7.59;23.13
32761;BME280;19126;47.472;7.850;2022-11-15T05:25:50;96228.28;;;7.60;24.26
32761;BME280;19126;47.472;7.850;2022-11-15T05:28:17;96221.44;;;7.59;22.41
32761;BME280;19126;47.472;7.850;2022-11-15T05:30:45;96228.28;;;7.60;22.85
32761;BME280;19126;47.472;7.850;2022-11-15T05:33:14;96232.38;;;7.55;23.81
32761;BME280;19126;47.472;7.850;2022-11-15T05:35:50;96229.75;;;7.55;22.82
32761;BME280;19126;47.472;7.850;2022-11-15T05:38:21;96223.06;;;7.52;21.73
32761;BME280;19126;47.472;7.850;2022-11-15T05:40:51;96224.84;;;7.52;21.84
32761;BME280;19126;47.472;7.850;2022-11-15T05:43:18;96215.56;;;7.49;21.66
32761;BME280;19126;47.472;7.850;2022-11-15T05:45:46;96220.13;;;7.47;20.23
32761;BME280;19126;47.472;7.850;2022-11-15T05:48:13;96215.56;;;7.49;19.94
32761;BME280;19126;47.472;7.850;2022-11-15T05:50:44;96217.34;;;7.48;19.85
32761;BME280;19126;47.472;7.850;2022-11-15T05:53:17;96213.09;;;7.47;19.30
32761;BME280;19126;47.472;7.850;2022-11-15T05:55:45;96213.94;;;7.48;18.25
32761;BME280;19126;47.472;7.850;2022-11-15T05:58:15;96212.13;;;7.48;18.55
32761;BME280;19126;47.472;7.850;2022-11-15T06:00:42;96205.25;;;7.47;17.98
32761;BME280;19126;47.472;7.850;2022-11-15T06:03:10;96208.69;;;7.48;17.84
32761;BME280;19126;47.472;7.850;2022-11-15T06:05:37;96209.50;;;7.48;18.02
32761;BME280;19126;47.472;7.850;2022-11-15T06:08:04;96207.88;;;7.47;17.03
32761;BME280;19126;47.472;7.850;2022-11-15T06:10:32;96198.41;;;7.46;17.32
32761;BME280;19126;47.472;7.850;2022-11-15T06:13:01;96199.22;;;7.47;16.79
32761;BME280;19126;47.472;7.850;2022-11-15T06:15:32;96197.59;;;7.46;16.77
32761;BME280;19126;47.472;7.850;2022-11-15T06:18:00;96195.31;;;7.43;16.11
32761;BME280;19126;47.472;7.850;2022-11-15T06:20:29;96199.56;;;7.44;15.87
32761;BME280;19126;47.472;7.850;2022-11-15T06:22:57;96201.53;;;7.42;14.93
32761;BME280;19126;47.472;7.850;2022-11-15T06:25:25;96196.13;;;7.43;14.49
32761;BME280;19126;47.472;7.850;2022-11-15T06:27:53;96193.69;;;7.42;14.60
32761;BME280;19126;47.472;7.850;2022-11-15T06:30:20;96188.59;;;7.40;14.62
32761;BME280;19126;47.472;7.850;2022-11-15T06:32:49;96185.84;;;7.42;14.87
32761;BME280;19126;47.472;7.850;2022-11-15T06:35:17;96193.69;;;7.42;14.73
32761;BME280;19126;47.472;7.850;2022-11-15T06:37:44;96190.25;;;7.41;13.73
32761;BME280;19126;47.472;7.850;2022-11-15T06:40:11;96197.28;;;7.41;13.77
32761;BME280;19126;47.472;7.850;2022-11-15T06:42:39;96191.88;;;7.42;14.92
32761;BME280;19126;47.472;7.850;2022-11-15T06:45:07;96201.34;;;7.43;14.65
32761;BME280;19126;47.472;7.850;2022-11-15T06:47:34;96190.88;;;7.43;13.91
32761;BME280;19126;47.472;7.850;2022-11-15T06:50:03;96193.69;;;7.42;13.45
32761;BME280;19126;47.472;7.850;2022-11-15T06:52:32;96198.91;;;7.42;13.90
32761;BME280;19126;47.472;7.850;2022-11-15T06:54:59;96203.16;;;7.43;13.84
32761;BME280;19126;47.472;7.850;2022-11-15T06:57:26;96201.34;;;7.43;13.36
32761;BME280;19126;47.472;7.850;2022-11-15T06:59:54;96201.34;;;7.43;14.07
32761;BME280;19126;47.472;7.850;2022-11-15T07:02:21;96193.03;;;7.48;14.26
32761;BME280;19126;47.472;7.850;2022-11-15T07:04:48;96204.28;;;7.48;14.18
32761;BME280;19126;47.472;7.850;2022-11-15T07:07:17;96199.69;;;7.51;13.81
32761;BME280;19126;47.472;7.850;2022-11-15T07:09:44;96201.34;;;7.52;12.69
32761;BME280;19126;47.472;7.850;2022-11-15T07:12:11;96204.78;;;7.52;13.48
32761;BME280;19126;47.472;7.850;2022-11-15T07:14:39;96201.19;;;7.53;13.09
32761;BME280;19126;47.472;7.850;2022-11-15T07:17:06;96209.34;;;7.58;13.63
32761;BME280;19126;47.472;7.850;2022-11-15T07:19:33;96209.16;;;7.60;13.78
32761;BME280;19126;47.472;7.850;2022-11-15T07:22:00;96208.19;;;7.61;13.11
32761;BME280;19126;47.472;7.850;2022-11-15T07:24:29;96208.69;;;7.65;13.11
32761;BME280;19126;47.472;7.850;2022-11-15T07:26:56;96207.50;;;7.67;13.50
32761;BME280;19126;47.472;7.850;2022-11-15T07:29:23;96209.13;;;7.76;14.18
32761;BME280;19126;47.472;7.850;2022-11-15T07:31:50;96211.41;;;7.80;13.14
32761;BME280;19126;47.472;7.850;2022-11-15T07:34:17;96209.13;;;7.85;14.27
32761;BME280;19126;47.472;7.850;2022-11-15T07:36:45;96206.00;;;7.89;14.38
32761;BME280;19126;47.472;7.850;2022-11-15T07:39:12;96212.53;;;7.94;14.64
32761;BME280;19126;47.472;7.850;2022-11-15T07:41:41;96207.31;;;7.94;13.66
32761;BME280;19126;47.472;7.850;2022-11-15T07:44:09;96203.88;;;7.93;14.79
32761;BME280;19126;47.472;7.850;2022-11-15T07:46:36;96212.53;;;7.94;15.12
32761;BME280;19126;47.472;7.850;2022-11-15T07:49:03;96208.13;;;7.94;14.82
32761;BME280;19126;47.472;7.850;2022-11-15T07:51:35;96205.50;;;7.94;15.32
32761;BME280;19126;47.472;7.850;2022-11-15T07:54:02;96199.97;;;7.97;15.94
32761;BME280;19126;47.472;7.850;2022-11-15T07:56:29;96204.03;;;8.00;16.20
32761;BME280;19126;47.472;7.850;2022-11-15T07:58:58;96210.72;;;8.02;16.43
32761;BME280;19126;47.472;7.850;2022-11-15T08:01:26;96210.41;;;8.05;17.67
32761;BME280;19126;47.472;7.850;2022-11-15T08:03:53;96213.47;;;8.09;17.67
32761;BME280;19126;47.472;7.850;2022-11-15T08:06:21;96220.50;;;8.17;18.15
32761;BME280;19126;47.472;7.850;2022-11-15T08:08:48;96218.34;;;8.20;20.67
32761;BME280;19126;47.472;7.850;2022-11-15T08:11:15;96221.28;;;8.26;20.96
32761;BME280;19126;47.472;7.850;2022-11-15T08:13:42;96222.91;;;8.27;22.93
32761;BME280;19126;47.472;7.850;2022-11-15T08:16:11;96214.91;;;8.28;24.63
32761;BME280;19126;47.472;7.850;2022-11-15T08:18:38;96213.72;;;8.31;25.91
32761;BME280;19126;47.472;7.850;2022-11-15T08:21:05;96214.38;;;8.33;27.35
32761;BME280;19126;47.472;7.850;2022-11-15T08:23:32;96215.84;;;8.35;27.24
32761;BME280;19126;47.472;7.850;2022-11-15T08:26:01;96213.22;;;8.35;29.10
32761;BME280;19126;47.472;7.850;2022-11-15T08:28:29;96212.41;;;8.35;30.00
32761;BME280;19126;47.472;7.850;2022-11-15T08:30:56;96213.88;;;8.38;30.11
32761;BME280;19126;47.472;7.850;2022-11-15T08:33:25;96214.88;;;8.36;29.09
32761;BME280;19126;47.472;7.850;2022-11-15T08:35:56;96213.88;;;8.38;29.10
32761;BME280;19126;47.472;7.850;2022-11-15T08:38:24;96210.56;;;8.44;32.97
32761;BME280;19126;47.472;7.850;2022-11-15T08:40:51;96206.13;;;8.44;36.59
32761;BME280;19126;47.472;7.850;2022-11-15T08:43:19;96205.50;;;8.50;39.89
32761;BME280;19126;47.472;7.850;2022-11-15T08:45:46;96209.25;;;8.56;44.86
32761;BME280;19126;47.472;7.850;2022-11-15T08:48:13;96199.88;;;8.62;47.78
32761;BME280;19126;47.472;7.850;2022-11-15T08:50:42;96200.16;;;8.67;50.00
32761;BME280;19126;47.472;7.850;2022-11-15T08:53:10;96199.66;;;8.72;50.71
32761;BME280;19126;47.472;7.850;2022-11-15T08:55:40;96196.81;;;8.82;50.22
32761;BME280;19126;47.472;7.850;2022-11-15T08:58:07;96191.22;;;8.85;50.31
32761;BME280;19126;47.472;7.850;2022-11-15T09:00:34;96189.09;;;8.88;51.14
32761;BME280;19126;47.472;7.850;2022-11-15T09:03:04;96186.47;;;8.88;50.37
32761;BME280;19126;47.472;7.850;2022-11-15T09:05:31;96181.03;;;8.90;50.52
32761;BME280;19126;47.472;7.850;2022-11-15T09:08:00;96182.50;;;8.92;49.39
32761;BME280;19126;47.472;7.850;2022-11-15T09:10:27;96176.91;;;8.96;49.02
32761;BME280;19126;47.472;7.850;2022-11-15T09:12:56;96183.59;;;8.98;53.65
32761;BME280;19126;47.472;7.850;2022-11-15T09:15:24;96183.94;;;8.95;54.56
32761;BME280;19126;47.472;7.850;2022-11-15T09:17:51;96179.19;;;8.99;54.10
32761;BME280;19126;47.472;7.850;2022-11-15T09:20:18;96173.59;;;9.02;58.72
32761;BME280;19126;47.472;7.850;2022-11-15T09:22:45;96164.28;;;8.99;63.71
32761;BME280;19126;47.472;7.850;2022-11-15T09:25:14;96161.13;;;9.04;68.80
32761;BME280;19126;47.472;7.850;2022-11-15T09:27:42;96159.97;;;9.06;71.97
32761;BME280;19126;47.472;7.850;2022-11-15T09:30:10;96155.19;;;9.10;72.46
32761;BME280;19126;47.472;7.850;2022-11-15T09:32:38;96160.09;;;9.13;72.49
32761;BME280;19126;47.472;7.850;2022-11-15T09:35:05;96163.78;;;9.19;72.57
32761;BME280;19126;47.472;7.850;2022-11-15T09:37:33;96157.91;;;9.17;77.02
32761;BME280;19126;47.472;7.850;2022-11-15T09:40:00;96164.78;;;9.18;76.84
32761;BME280;19126;47.472;7.850;2022-11-15T09:42:57;96162.34;;;9.16;79.40
32761;BME280;19126;47.472;7.850;2022-11-15T09:45:34;96160.53;;;9.17;78.28
32761;BME280;19126;47.472;7.850;2022-11-15T09:48:27;96163.34;;;9.15;78.18
32761;BME280;19126;47.472;7.850;2022-11-15T09:50:58;96164.97;;;9.16;80.94
32761;BME280;19126;47.472;7.850;2022-11-15T09:53:29;96162.16;;;9.18;81.61
32761;BME280;19126;47.472;7.850;2022-11-15T09:56:02;96165.97;;;9.15;86.59
32761;BME280;19126;47.472;7.850;2022-11-15T09:58:37;96165.78;;;9.17;89.42
32761;BME280;19126;47.472;7.850;2022-11-15T10:01:14;96176.25;;;9.17;90.83
32761;BME280;19126;47.472;7.850;2022-11-15T10:03:44;96183.13;;;9.18;92.17
32761;BME280;19126;47.472;7.850;2022-11-15T10:06:21;96183.75;;;9.20;91.00
32761;BME280;19126;47.472;7.850;2022-11-15T10:08:58;96166.59;;;9.17;88.73
32761;BME280;19126;47.472;7.850;2022-11-15T10:11:31;96165.13;;;9.15;86.91
32761;BME280;19126;47.472;7.850;2022-11-15T10:14:03;96152.84;;;9.15;83.41
32761;BME280;19126;47.472;7.850;2022-11-15T10:20:12;96157.75;;;9.18;74.93
32761;BME280;19126;47.472;7.850;2022-11-15T10:22:46;96157.28;;;9.15;71.47
32761;BME280;19126;47.472;7.850;2022-11-15T10:25:21;96154.13;;;9.19;67.93
32761;BME280;19126;47.472;7.850;2022-11-15T10:27:57;96141.47;;;9.23;63.34
32761;BME280;19126;47.472;7.850;2022-11-15T10:30:34;96136.72;;;9.27;61.29
32761;BME280;19126;47.472;7.850;2022-11-15T10:33:26;96134.38;;;9.32;61.42
32761;BME280;19126;47.472;7.850;2022-11-15T10:36:16;96123.16;;;9.38;61.00
32761;BME280;19126;47.472;7.850;2022-11-15T10:38:56;96112.41;;;9.33;69.90
32761;BME280;19126;47.472;7.850;2022-11-15T10:41:36;96111.06;;;9.37;79.36
32761;BME280;19126;47.472;7.850;2022-11-15T10:44:20;96104.28;;;9.43;86.11
32761;BME280;19126;47.472;7.850;2022-11-15T10:49:59;96081.97;;;9.47;94.58
32761;BME280;19126;47.472;7.850;2022-11-15T10:52:28;96085.84;;;9.51;96.14
32761;BME280;19126;47.472;7.850;2022-11-15T10:55:01;96101.03;;;9.56;95.73
32761;BME280;19126;47.472;7.850;2022-11-15T10:57:32;96102.13;;;9.61;96.02
32761;BME280;19126;47.472;7.850;2022-11-15T11:00:05;96092.53;;;9.68;94.10
32761;BME280;19126;47.472;7.850;2022-11-15T11:02:36;96092.63;;;9.75;94.08
32761;BME280;19126;47.472;7.850;2022-11-15T11:05:12;96081.41;;;9.81;93.97
32761;BME280;19126;47.472;7.850;2022-11-15T11:07:57;96080.13;;;9.92;95.28
32761;BME280;19126;47.472;7.850;2022-11-15T11:10:25;96067.53;;;10.03;95.08
32761;BME280;19126;47.472;7.850;2022-11-15T11:12:52;96054.09;;;10.12;93.69
32761;BME280;19126;47.472;7.850;2022-11-15T11:15:20;96048.75;;;10.21;91.15
32761;BME280;19126;47.472;7.850;2022-11-15T11:18:01;96033.25;;;10.26;98.29
32761;BME280;19126;47.472;7.850;2022-11-15T11:20:38;96031.88;;;10.30;100.00
32761;BME280;19126;47.472;7.850;2022-11-15T11:23:33;96025.06;;;10.36;100.00
32761;BME280;19126;47.472;7.850;2022-11-15T11:26:18;96028.78;;;10.41;100.00
32761;BME280;19126;47.472;7.850;2022-11-15T11:29:00;96030.28;;;10.51;100.00
32761;BME280;19126;47.472;7.850;2022-11-15T11:31:35;96029.47;;;10.50;100.00
32761;BME280;19126;47.472;7.850;2022-11-15T11:34:15;96031.91;;;10.52;100.00
32761;BME280;19126;47.472;7.850;2022-11-15T11:36:52;96025.03;;;10.51;100.00
32761;BME280;19126;47.472;7.850;2022-11-15T11:39:34;96015.59;;;10.57;100.00
32761;BME280;19126;47.472;7.850;2022-11-15T11:42:15;96024.66;;;10.54;100.00
32761;BME280;19126;47.472;7.850;2022-11-15T11:44:54;96014.75;;;10.56;100.00
32761;BME280;19126;47.472;7.850;2022-11-15T11:47:31;96006.88;;;10.56;100.00
32761;BME280;19126;47.472;7.850;2022-11-15T11:50:11;96002.09;;;10.60;100.00
32761;BME280;19126;47.472;7.850;2022-11-15T11:52:44;96009.28;;;10.73;100.00
32761;BME280;19126;47.472;7.850;2022-11-15T11:55:23;96003.44;;;10.77;100.00
32761;BME280;19126;47.472;7.850;2022-11-15T11:57:59;95999.41;;;10.81;100.00
32761;BME280;19126;47.472;7.850;2022-11-15T12:00:31;95992.78;;;10.85;100.00
32761;BME280;19126;47.472;7.850;2022-11-15T12:03:09;95993.78;;;10.84;100.00
32761;BME280;19126;47.472;7.850;2022-11-15T12:05:44;95991.97;;;10.85;100.00
32761;BME280;19126;47.472;7.850;2022-11-15T12:08:28;95975.59;;;10.83;100.00
32761;BME280;19126;47.472;7.850;2022-11-15T12:11:07;95966.94;;;10.89;100.00
32761;BME280;19126;47.472;7.850;2022-11-15T12:13:37;95961.72;;;10.96;100.00
32761;BME280;19126;47.472;7.850;2022-11-15T12:16:14;95953.22;;;10.94;100.00
32761;BME280;19126;47.472;7.850;2022-11-15T12:18:48;95955.06;;;10.93;100.00
32761;BME280;19126;47.472;7.850;2022-11-15T12:21:24;95954.03;;;10.94;100.00
32761;BME280;19126;47.472;7.850;2022-11-15T12:24:02;95966.19;;;10.95;100.00
32761;BME280;19126;47.472;7.850;2022-11-15T12:26:36;95967.97;;;10.95;100.00
32761;BME280;19126;47.472;7.850;2022-11-15T12:29:15;95963.31;;;10.90;100.00
32761;BME280;19126;47.472;7.850;2022-11-15T12:31:48;95958.25;;;10.89;100.00
32761;BME280;19126;47.472;7.850;2022-11-15T12:34:42;95942.06;;;10.85;100.00
32761;BME280;19126;47.472;7.850;2022-11-15T12:37:51;95940.84;;;10.88;100.00
32761;BME280;19126;47.472;7.850;2022-11-15T12:40:27;95923.69;;;10.92;100.00
32761;BME280;19126;47.472;7.850;2022-11-15T12:43:35;95922.66;;;10.86;100.00
32761;BME280;19126;47.472;7.850;2022-11-15T12:46:08;95913.94;;;10.79;100.00
32761;BME280;19126;47.472;7.850;2022-11-15T12:48:53;95908.09;;;10.83;100.00
32761;BME280;19126;47.472;7.850;2022-11-15T12:54:58;95907.22;;;10.69;100.00
32761;BME280;19126;47.472;7.850;2022-11-15T12:57:43;95896.69;;;10.69;100.00
32761;BME280;19126;47.472;7.850;2022-11-15T13:00:43;95899.31;;;10.69;100.00
32761;BME280;19126;47.472;7.850;2022-11-15T13:03:28;95899.88;;;10.65;100.00
32761;BME280;19126;47.472;7.850;2022-11-15T13:06:39;95906.72;;;10.59;100.00
32761;BME280;19126;47.472;7.850;2022-11-15T13:12:55;95902.81;;;10.48;100.00
32761;BME280;19126;47.472;7.850;2022-11-15T13:15:53;95905.63;;;10.47;100.00
32761;BME280;19126;47.472;7.850;2022-11-15T13:18:36;95896.56;;;10.49;100.00
32761;BME280;19126;47.472;7.850;2022-11-15T13:21:21;95896.56;;;10.49;100.00
32761;BME280;19126;47.472;7.850;2022-11-15T13:24:13;95899.59;;;10.53;100.00
32761;BME280;19126;47.472;7.850;2022-11-15T13:26:40;95893.84;;;10.64;100.00
32761;BME280;19126;47.472;7.850;2022-11-15T13:29:18;95878.47;;;10.61;100.00
32761;BME280;19126;47.472;7.850;2022-11-15T13:31:47;95881.28;;;10.60;100.00
32761;BME280;19126;47.472;7.850;2022-11-15T13:34:27;95870.75;;;10.60;100.00
32761;BME280;19126;47.472;7.850;2022-11-15T13:36:56;95871.78;;;10.59;100.00
32761;BME280;19126;47.472;7.850;2022-11-15T13:39:29;95862.84;;;10.53;100.00
32761;BME280;19126;47.472;7.850;2022-11-15T13:41:58;95861.34;;;10.44;100.00
32761;BME280;19126;47.472;7.850;2022-11-15T13:44:30;95842.81;;;10.45;100.00
32761;BME280;19126;47.472;7.850;2022-11-15T13:47:06;95839.72;;;10.41;100.00
32761;BME280;19126;47.472;7.850;2022-11-15T13:49:34;95837.72;;;10.44;100.00
32761;BME280;19126;47.472;7.850;2022-11-15T13:52:06;95833.22;;;10.37;100.00
32761;BME280;19126;47.472;7.850;2022-11-15T13:54:37;95833.44;;;10.36;100.00
32761;BME280;19126;47.472;7.850;2022-11-15T13:57:14;95831.56;;;10.30;100.00
32761;BME280;19126;47.472;7.850;2022-11-15T13:59:49;95833.97;;;10.31;100.00
32761;BME280;19126;47.472;7.850;2022-11-15T14:02:19;95829.50;;;10.25;100.00
32761;BME280;19126;47.472;7.850;2022-11-15T14:04:52;95826.09;;;10.24;100.00
32761;BME280;19126;47.472;7.850;2022-11-15T14:07:23;95833.91;;;10.18;100.00